Flight Track Log - Related Links

Times and Time Zones

All times are in EDT time to prevent confusion due to time zone crossing. See the N476DS flight status page for this flight to view local times or setup timezone preferences in your user account.

Time Position Orientation Groundspeed Altitude Reporting Facility
EDT Latitude Longitude Course Direction KTS MPH feet Rate Location/Type
Sat 09:03:19 PM 38.7136 -75.2975 North 98 113 2,200  Level Washington Center
Sat 09:04:23 PM 38.7408 -75.2858 18° North 101 116 2,900 720 Climbing Washington Center
Sat 09:05:24 PM 38.7678 -75.2658 30° Northeast 107 123 3,700 726 Climbing Washington Center
Sat 09:06:27 PM 38.7933 -75.2647 North 111 128 4,400 634 Climbing Washington Center
Sat 09:07:00 PM 38.7962 -75.5000 North  Level FlightAware Approximate
Sat 09:07:27 PM 38.8211 -75.2731 347° North 105 121 5,000  Level Washington Center
Sat 09:08:00 PM 38.8362 -75.5000 North  Level FlightAware Approximate
Sat 09:08:27 PM 38.8561 -75.2856 344° North 115 132 4,900  Level Washington Center
Sat 09:09:31 PM 38.8950 -75.3025 341° North 135 155 4,900  Level Washington Center
Sat 09:10:32 PM 38.9417 -75.3206 343° North 143 165 4,900  Level Washington Center
Sat 09:11:33 PM 38.9783 -75.3353 343° North 143 165 4,900  Level Washington Center
Sat 09:12:34 PM 39.0156 -75.3497 343° North 143 165 4,900  Level Washington Center
Sat 09:13:37 PM 39.0536 -75.3642 344° North 142 163 4,900  Level Washington Center
Sat 09:14:39 PM 39.0922 -75.3781 344° North 143 165 4,900  Level Washington Center
Sat 09:15:40 PM 39.1311 -75.3947 342° North 143 165 4,900  Level Washington Center
Sat 09:16:42 PM 39.1694 -75.4094 343° North 143 165 4,900  Level Washington Center
Sat 09:17:44 PM 39.2081 -75.4247 343° North 143 165 4,900  Level Washington Center
Sat 09:18:45 PM 39.2536 -75.4428 343° North 143 165 4,900  Level Washington Center
Sat 09:19:46 PM 39.2919 -75.4575 343° North 143 165 4,900  Level Washington Center
Sat 09:20:47 PM 39.3306 -75.4719 344° North 143 165 4,900  Level Washington Center
Sat 09:21:49 PM 39.3689 -75.4869 343° North 143 165 4,900 49 Level Washington Center
Sat 09:22:49 PM 39.4072 -75.5011 344° North 143 165 5,000 50 Climbing Washington Center
Sat 09:23:50 PM 39.4453 -75.5161 343° North 144 166 5,000  Level Washington Center
Sat 09:24:53 PM 39.4842 -75.5314 343° North 144 166 5,000  Level Washington Center
Sat 09:25:55 PM 39.5225 -75.5464 343° North 144 166 5,000  Level Washington Center
Sat 09:26:54 PM 39.5622 -75.5611 344° North 145 167 5,000  Level Washington Center
Sat 09:27:57 PM 39.6083 -75.5794 343° North 145 167 5,000 -60 Level Washington Center
Sat 09:28:34 PM 39.6333 -75.5833 353° North 145 167 4,900 -62 Descending Philadelphia TRACON
Sat 09:29:34 PM 39.6667 -75.6000 339° North 144 166 4,900  Level Philadelphia TRACON
Sat 09:30:34 PM 39.7167 -75.6167 346° North 144 166 4,900  Level Philadelphia TRACON
Sat 09:31:34 PM 39.7500 -75.6333 339° North 147 169 4,900  Level Philadelphia TRACON
Sat 09:32:40 PM 39.8000 -75.6333 360° North 150 173 4,900  Level Philadelphia TRACON
Sat 09:33:34 PM 39.8333 -75.6500 339° North 148 170 4,900  Level Philadelphia TRACON
Sat 09:34:35 PM 39.8667 -75.6667 339° North 148 170 4,900  Level Philadelphia TRACON
Sat 09:35:35 PM 39.9167 -75.6667 360° North 147 169 4,900 53 Level Philadelphia TRACON
Sat 09:36:29 PM 39.9333 -75.6333 57° Northeast 156 180 5,000  Climbing Philadelphia TRACON
Sat 09:37:35 PM 39.9667 -75.6000 37° Northeast 151 174 4,900 -48 Descending Philadelphia TRACON
Sat 09:38:35 PM 40.0000 -75.5500 49° Northeast 150 173 4,900  Level Philadelphia TRACON
Sat 09:39:35 PM 40.0333 -75.5167 37° Northeast 152 175 4,900  Level Philadelphia TRACON
Sat 09:40:35 PM 40.0667 -75.4833 37° Northeast 151 174 4,900  Level Philadelphia TRACON
Sat 09:41:29 PM 40.0833 -75.4333 66° East 151 174 4,900  Level Philadelphia TRACON
Sat 09:42:29 PM 40.1167 -75.4000 37° Northeast 150 173 4,900  Level Philadelphia TRACON
Sat 09:43:29 PM 40.1500 -75.3667 37° Northeast 150 173 4,900  Level Philadelphia TRACON
Sat 09:44:29 PM 40.1667 -75.3167 66° East 152 175 4,900  Level Philadelphia TRACON
Sat 09:45:41 PM 40.2000 -75.2667 49° Northeast 147 169 4,900 -227 Level Philadelphia TRACON
Sat 09:46:41 PM 40.2333 -75.2333 37° Northeast 166 191 4,400 -496 Descending Philadelphia TRACON
Sat 09:47:42 PM 40.2667 -75.1833 49° Northeast 157 181 3,900 -131 Descending Philadelphia TRACON
Sat 09:49:44 PM 40.3333 -75.1000 44° Northeast 152 175 4,000 50 Climbing New York TRACON
Sat 09:51:44 PM 40.3833 -75.0333 45° Northeast 151 174 4,100 34 Climbing New York TRACON
Sat 09:52:38 PM 40.4000 -75.0000 57° Northeast 149 171 4,100  Level New York TRACON
Sat 09:53:44 PM 40.4333 -74.9500 49° Northeast 150 173 4,100  Level New York TRACON
Sat 09:54:44 PM 40.4667 -74.9000 49° Northeast 147 169 4,100  Level New York TRACON
Sat 09:55:44 PM 40.5000 -74.8667 37° Northeast 149 171 4,100  Level New York TRACON
Sat 09:56:44 PM 40.5167 -74.8333 57° Northeast 150 173 4,100  Level New York TRACON
Sat 09:57:44 PM 40.5500 -74.7833 49° Northeast 152 175 4,100 -50 Level New York TRACON
Sat 09:58:44 PM 40.5833 -74.7500 37° Northeast 155 178 4,000 -50 Descending New York TRACON
Sat 09:59:44 PM 40.6000 -74.7000 66° East 155 178 4,000 -200 Level New York TRACON
Sat 10:00:44 PM 40.6333 -74.6500 49° Northeast 168 193 3,600 -450 Descending New York TRACON
Sat 10:01:44 PM 40.6667 -74.6167 37° Northeast 172 198 3,100 -300 Descending New York TRACON
Sat 10:02:44 PM 40.7000 -74.5667 49° Northeast 163 188 3,000 -316 Descending New York TRACON
Sat 10:03:38 PM 40.7167 -74.5333 57° Northeast 154 177 2,500 -500 Descending New York TRACON
Sat 10:04:44 PM 40.7500 -74.4833 49° Northeast 148 170 2,000 -238 Descending New York TRACON
Sat 10:05:44 PM 40.7667 -74.4500 57° Northeast 139 160 2,000  Level New York TRACON
Sat 10:06:44 PM 40.8000 -74.4000 49° Northeast 134 154 2,000  Level New York TRACON
Sat 10:07:50 PM 40.8333 -74.3667 37° Northeast 131 151 2,000 -182 Level New York TRACON
Sat 10:08:56 PM 40.8500 -74.3333 57° Northeast 136 157 1,600 -381 Descending New York TRACON
Sat 10:09:56 PM 40.8833 -74.3000 37° Northeast 114 131 1,200 -278 Descending New York TRACON
Sat 10:10:44 PM 40.9000 -74.3000 360° North 97 112 1,100 -125 Descending New York TRACON
Sat 10:12:00 PM 40.8752 -74.2814 143° Southeast  Level Estimated
Sat 10:19:00 PM 40.8752 -74.2814 52° Northeast  Level Estimated
Sat 10:20:00 PM 40.8752 -74.2814 128° Southeast  Level Estimated
Sat 10:21:00 PM 40.8752 -74.2814 128° Southeast  Level Estimated
Sat 10:22:00 PM 40.8752 -74.2814 52° Northeast  Level Estimated

Login

Don't have an account? Register now (free) for customized features, flight alerts, and more!